createdAt,value
2022-11-04T00:04:21.467Z,100293.81
2022-11-04T00:14:26.187Z,100297.66
2022-11-04T00:24:43.922Z,100299.84
2022-11-04T00:34:48.790Z,100303.63
2022-11-04T00:44:52.023Z,100299.03
2022-11-04T00:54:56.488Z,100300.56
2022-11-04T01:05:00.031Z,100303.56
2022-11-04T01:15:05.311Z,100300.97
2022-11-04T01:25:09.797Z,100299.56
2022-11-04T01:35:14.445Z,100303.78
2022-11-04T01:45:19.849Z,100307.66
2022-11-04T01:55:32.629Z,100311.50
2022-11-04T02:05:36.160Z,100310.44
2022-11-04T02:15:49.556Z,100315.47
2022-11-04T02:26:34.018Z,100313.44
2022-11-04T02:36:50.191Z,100317.72
2022-11-04T02:47:00.777Z,100318.81
2022-11-04T02:57:12.410Z,100319.44
2022-11-04T03:07:21.232Z,100323.06
2022-11-04T03:17:31.784Z,100326.13
2022-11-04T03:27:42.142Z,100330.09
2022-11-04T03:37:49.733Z,100334.56
2022-11-04T03:47:53.197Z,100337.69
2022-11-04T03:58:02.635Z,100342.38
2022-11-04T04:08:20.357Z,100343.81
2022-11-04T04:18:34.389Z,100341.59
2022-11-04T04:28:39.005Z,100346.06
2022-11-04T04:39:02.714Z,100346.56
2022-11-04T04:49:06.531Z,100348.69
2022-11-04T04:59:11.744Z,100350.13
2022-11-04T05:09:14.947Z,100352.75
2022-11-04T05:19:19.568Z,100356.44
2022-11-04T05:29:22.703Z,100358.75
2022-11-04T05:39:27.885Z,100364.13
2022-11-04T05:49:33.778Z,100363.41
2022-11-04T05:59:38.466Z,100369.06
2022-11-04T06:09:41.657Z,100373.41
2022-11-04T06:19:46.509Z,100370.75
2022-11-04T06:29:49.633Z,100376.25
2022-11-04T06:39:56.867Z,100381.00
2022-11-04T06:49:59.956Z,100384.22
2022-11-04T07:00:05.481Z,100389.88
2022-11-04T07:10:09.345Z,100392.31
2022-11-04T07:20:13.798Z,100397.78
2022-11-04T07:30:20.837Z,100402.75
2022-11-04T07:40:26.619Z,100407.88
2022-11-04T07:50:29.813Z,100411.44
2022-11-04T08:00:34.525Z,100414.06
2022-11-04T08:10:42.011Z,100414.97
2022-11-04T08:20:50.301Z,100418.41
2022-11-04T08:30:55.426Z,100419.34
2022-11-04T08:41:00.842Z,100419.25
2022-11-04T08:51:06.694Z,100421.50
2022-11-04T09:01:13.055Z,100421.72
2022-11-04T09:11:19.121Z,100426.31
2022-11-04T09:21:27.524Z,100430.53
2022-11-04T09:31:31.078Z,100434.59
2022-11-04T09:41:57.736Z,100438.59
2022-11-04T09:52:05.728Z,100438.84
2022-11-04T10:02:37.845Z,100440.25
2022-11-04T10:12:54.482Z,100444.47
2022-11-04T10:23:02.779Z,100448.09
2022-11-04T10:33:14.366Z,100449.19
2022-11-04T10:43:27.268Z,100453.13
2022-11-04T10:53:32.706Z,100457.19
2022-11-04T11:03:37.648Z,100454.84
2022-11-04T11:13:43.374Z,100458.94
2022-11-04T11:23:51.471Z,100461.25
2022-11-04T11:33:58.300Z,100465.47
2022-11-04T11:44:09.123Z,100466.41
2022-11-04T11:54:26.302Z,100464.91
2022-11-04T12:15:20.772Z,100463.13
2022-11-04T12:25:36.763Z,100466.66
2022-11-04T12:35:52.207Z,100468.44
2022-11-04T12:46:10.961Z,100470.66
2022-11-04T12:56:18.194Z,100475.53
2022-11-04T13:06:27.635Z,100480.41
2022-11-04T13:27:25.352Z,100487.78
2022-11-04T13:37:34.476Z,100493.78
2022-11-04T13:47:50.807Z,100499.63
2022-11-04T13:57:58.133Z,100502.84
2022-11-04T14:08:14.650Z,100504.38
2022-11-04T14:18:33.223Z,100507.69
2022-11-04T14:28:39.784Z,100511.72
2022-11-04T14:38:43.866Z,100512.03
2022-11-04T14:48:52.837Z,100518.00
2022-11-04T14:58:57.736Z,100520.81
2022-11-04T15:09:05.472Z,100524.19
2022-11-04T15:19:12.719Z,100531.06
2022-11-04T15:29:19.444Z,100537.53
2022-11-04T15:39:25.672Z,100544.44
2022-11-04T15:49:33.044Z,100550.22
2022-11-04T15:59:43.648Z,100558.69
2022-11-04T16:09:50.016Z,100565.41
2022-11-04T16:19:55.706Z,100571.94
2022-11-04T16:30:10.861Z,100577.16
2022-11-04T16:40:15.046Z,100583.31
2022-11-04T16:50:20.073Z,100585.31
2022-11-04T17:00:24.687Z,100588.84
2022-11-04T17:10:29.598Z,100588.38
2022-11-04T17:20:35.621Z,100594.81
2022-11-04T17:30:41.104Z,100596.69
2022-11-04T17:41:05.185Z,100600.19
2022-11-04T17:51:11.280Z,100603.78
2022-11-04T18:01:16.636Z,100610.25
2022-11-04T18:11:41.674Z,100617.00
2022-11-04T18:21:44.933Z,100623.09
2022-11-04T18:31:49.998Z,100629.81
2022-11-04T18:41:53.201Z,100632.50
2022-11-04T18:51:57.844Z,100638.78
2022-11-04T19:02:00.854Z,100645.31
2022-11-04T19:12:24.473Z,100651.38
2022-11-04T19:22:27.615Z,100648.59
2022-11-04T19:32:31.997Z,100654.94
2022-11-04T19:42:53.615Z,100661.13
2022-11-04T19:52:58.139Z,100665.94
2022-11-04T20:03:01.285Z,100671.28
2022-11-04T20:13:24.731Z,100676.66
2022-11-04T20:23:27.650Z,100678.75
2022-11-04T20:33:32.238Z,100680.63
2022-11-04T20:43:36.883Z,100686.81
2022-11-04T20:53:41.762Z,100689.75
2022-11-04T21:03:47.598Z,100691.69
2022-11-04T21:13:58.168Z,100697.06
2022-11-04T21:24:03.048Z,100701.25
2022-11-04T21:34:07.766Z,100700.28
2022-11-04T21:44:13.127Z,100705.13
2022-11-04T21:54:20.719Z,100707.97
2022-11-04T22:04:27.469Z,100713.19
2022-11-04T22:14:36.253Z,100715.47
2022-11-04T22:24:39.252Z,100720.56
2022-11-04T22:34:48.150Z,100725.09
2022-11-04T22:44:51.076Z,100729.34
2022-11-04T22:55:26.479Z,100733.47
2022-11-04T23:05:31.946Z,100738.16
2022-11-04T23:15:57.650Z,100739.91
2022-11-04T23:26:09.683Z,100741.84
2022-11-04T23:36:33.505Z,100743.53
2022-11-04T23:46:55.292Z,100749.34
2022-11-04T23:57:19.503Z,100752.09
